createdAt,value
2019-05-25T00:00:28.544Z,10.98
2019-05-25T00:01:28.540Z,11.02
2019-05-25T00:02:28.531Z,11.01
2019-05-25T00:03:28.540Z,10.94
2019-05-25T00:04:28.542Z,10.92
2019-05-25T00:05:28.529Z,10.90
2019-05-25T00:06:28.545Z,10.88
2019-05-25T00:07:28.535Z,10.72
2019-05-25T00:08:28.548Z,10.86
2019-05-25T00:09:28.566Z,10.94
2019-05-25T00:10:28.548Z,10.87
2019-05-25T00:11:28.561Z,10.88
2019-05-25T00:12:28.566Z,10.98
2019-05-25T00:13:28.564Z,11.00
2019-05-25T00:14:28.568Z,11.08
2019-05-25T00:15:28.550Z,11.02
2019-05-25T00:16:28.550Z,10.92
2019-05-25T00:17:28.566Z,10.89
2019-05-25T00:18:28.554Z,10.90
2019-05-25T00:19:28.551Z,10.92
2019-05-25T00:20:28.563Z,10.98
2019-05-25T00:21:28.566Z,10.95
2019-05-25T00:22:28.568Z,10.89
2019-05-25T00:23:28.570Z,10.91
2019-05-25T00:24:28.577Z,11.00
2019-05-25T00:25:28.549Z,10.92
2019-05-25T00:26:28.554Z,10.88
2019-05-25T00:27:28.566Z,10.85
2019-05-25T00:28:28.558Z,10.84
2019-05-25T00:29:28.550Z,10.79
2019-05-25T00:30:28.578Z,10.80
2019-05-25T00:31:28.558Z,10.81
2019-05-25T00:32:28.556Z,10.78
2019-05-25T00:33:28.574Z,10.76
2019-05-25T00:34:28.568Z,10.72
2019-05-25T00:35:28.550Z,10.73
2019-05-25T00:36:28.575Z,10.76
2019-05-25T00:37:28.561Z,10.93
2019-05-25T00:38:28.567Z,10.87
2019-05-25T00:39:28.583Z,10.89
2019-05-25T00:40:28.574Z,10.87
2019-05-25T00:41:28.594Z,10.82
2019-05-25T00:42:28.582Z,10.85
2019-05-25T00:43:28.581Z,10.98
2019-05-25T00:44:28.584Z,10.98
2019-05-25T00:45:28.582Z,10.89
2019-05-25T00:46:28.589Z,10.85
2019-05-25T00:47:28.561Z,10.74
2019-05-25T00:48:28.586Z,10.75
2019-05-25T00:49:28.564Z,10.76
2019-05-25T00:50:28.575Z,10.74
2019-05-25T00:51:28.596Z,10.78
2019-05-25T00:52:28.605Z,10.72
2019-05-25T00:53:28.571Z,10.72
2019-05-25T00:54:28.587Z,10.65
2019-05-25T00:55:28.586Z,10.70
2019-05-25T00:56:28.553Z,10.64
2019-05-25T00:57:28.602Z,10.66
2019-05-25T00:58:28.597Z,10.67
2019-05-25T00:59:28.601Z,10.61
2019-05-25T01:00:28.589Z,10.66
2019-05-25T01:01:28.568Z,10.66
2019-05-25T01:02:28.547Z,10.66
2019-05-25T01:03:28.600Z,10.67
2019-05-25T01:04:28.583Z,10.66
2019-05-25T01:05:28.618Z,10.60
2019-05-25T01:06:28.603Z,10.53
2019-05-25T01:07:28.609Z,10.53
2019-05-25T01:08:28.565Z,10.48
2019-05-25T01:09:28.612Z,10.51
2019-05-25T01:10:28.622Z,10.50
2019-05-25T01:11:28.583Z,10.59
2019-05-25T01:12:28.605Z,10.50
2019-05-25T01:13:28.609Z,10.42
2019-05-25T01:14:28.565Z,10.43
2019-05-25T01:15:28.605Z,10.36
2019-05-25T01:16:28.658Z,10.35
2019-05-25T01:17:28.586Z,10.30
2019-05-25T01:18:28.604Z,10.34
2019-05-25T01:19:28.587Z,10.33
2019-05-25T01:20:28.584Z,10.32
2019-05-25T01:21:28.605Z,10.37
2019-05-25T01:22:28.624Z,10.38
2019-05-25T01:23:28.593Z,10.42
2019-05-25T01:24:43.247Z,10.46
2019-05-25T01:25:28.617Z,10.45
2019-05-25T01:26:28.590Z,10.46
2019-05-25T01:27:28.606Z,10.49
2019-05-25T01:28:28.635Z,10.50
2019-05-25T01:29:28.601Z,10.46
2019-05-25T01:30:28.619Z,10.38
2019-05-25T01:31:28.595Z,10.41
2019-05-25T01:32:28.577Z,10.31
2019-05-25T01:33:28.635Z,10.29
2019-05-25T01:34:28.623Z,10.38
2019-05-25T01:35:28.594Z,10.28
2019-05-25T01:36:28.625Z,10.38
2019-05-25T01:37:28.618Z,10.39
2019-05-25T01:38:28.632Z,10.42
2019-05-25T01:39:28.620Z,10.41
2019-05-25T01:40:28.620Z,10.43
2019-05-25T01:41:28.632Z,10.43
2019-05-25T01:42:28.646Z,10.31
2019-05-25T01:43:28.628Z,10.38
2019-05-25T01:44:28.606Z,10.42
2019-05-25T01:45:28.649Z,10.34
2019-05-25T01:46:28.659Z,10.33
2019-05-25T01:47:28.625Z,10.30
2019-05-25T01:48:28.635Z,10.26
2019-05-25T01:49:28.621Z,10.28
2019-05-25T01:50:28.583Z,10.22
2019-05-25T01:51:28.677Z,10.20
2019-05-25T01:52:28.638Z,10.16
2019-05-25T01:53:28.633Z,10.15
2019-05-25T01:54:28.649Z,10.07
2019-05-25T01:55:28.617Z,10.09
2019-05-25T01:56:28.605Z,10.10
2019-05-25T01:57:28.646Z,9.97
2019-05-25T01:58:28.632Z,9.98
2019-05-25T01:59:28.650Z,9.95
2019-05-25T02:00:28.649Z,10.00
2019-05-25T02:01:28.636Z,9.96
2019-05-25T02:02:28.623Z,9.97
2019-05-25T02:03:28.647Z,9.92
2019-05-25T02:04:28.653Z,9.93
2019-05-25T02:05:28.640Z,10.02
2019-05-25T02:06:28.654Z,10.04
2019-05-25T02:07:28.632Z,10.02
2019-05-25T02:08:28.641Z,9.99
2019-05-25T02:09:28.670Z,10.07
2019-05-25T02:10:28.663Z,10.08
2019-05-25T02:11:28.617Z,10.06
2019-05-25T02:12:28.656Z,10.06
2019-05-25T02:13:28.635Z,9.96
2019-05-25T02:14:28.640Z,9.80
2019-05-25T02:15:28.641Z,9.99
2019-05-25T02:16:28.642Z,9.88
2019-05-25T02:17:28.653Z,9.92
2019-05-25T02:18:28.662Z,10.04
2019-05-25T02:19:28.639Z,10.04
2019-05-25T02:20:28.649Z,10.00
2019-05-25T02:21:28.657Z,9.99
2019-05-25T02:22:28.646Z,10.00
2019-05-25T02:23:28.681Z,9.98
2019-05-25T02:24:28.660Z,9.99
2019-05-25T02:25:28.658Z,9.96
2019-05-25T02:26:28.630Z,9.99
2019-05-25T02:27:28.657Z,9.98
2019-05-25T02:28:28.657Z,9.98
2019-05-25T02:29:28.674Z,9.91
2019-05-25T02:30:28.696Z,10.00
2019-05-25T02:31:28.657Z,9.91
2019-05-25T02:32:28.638Z,9.86
2019-05-25T02:33:28.668Z,9.92
2019-05-25T02:34:28.667Z,9.86
2019-05-25T02:35:28.701Z,9.85
2019-05-25T02:36:28.665Z,9.80
2019-05-25T02:37:28.666Z,9.81
2019-05-25T02:38:28.645Z,9.70
2019-05-25T02:39:28.672Z,9.79
2019-05-25T02:40:28.857Z,9.73
2019-05-25T02:41:28.676Z,9.78
2019-05-25T02:42:28.669Z,9.78
2019-05-25T02:43:28.695Z,9.70
2019-05-25T02:44:28.660Z,9.73
2019-05-25T02:45:28.690Z,9.77
2019-05-25T02:46:28.681Z,9.80
2019-05-25T02:47:28.691Z,9.74
2019-05-25T02:48:28.676Z,9.77
2019-05-25T02:49:28.691Z,9.82
2019-05-25T02:50:28.646Z,9.72
2019-05-25T02:51:28.680Z,9.61
2019-05-25T02:52:28.691Z,9.81
2019-05-25T02:53:28.674Z,9.73
2019-05-25T02:54:28.678Z,9.84
2019-05-25T02:55:34.409Z,9.92
2019-05-25T02:56:28.660Z,9.80
2019-05-25T02:57:28.683Z,9.65
2019-05-25T02:58:28.680Z,9.73
2019-05-25T02:59:28.690Z,9.79
2019-05-25T03:00:28.692Z,9.72
2019-05-25T03:01:28.682Z,9.72
2019-05-25T03:02:28.677Z,9.77
2019-05-25T03:03:28.689Z,9.73
2019-05-25T03:04:28.695Z,9.65
2019-05-25T03:05:28.704Z,9.69
2019-05-25T03:06:28.679Z,9.65
2019-05-25T03:07:28.690Z,9.56
2019-05-25T03:08:28.685Z,9.53
2019-05-25T03:09:28.694Z,9.57
2019-05-25T03:10:28.691Z,9.57
2019-05-25T03:11:28.698Z,9.64
2019-05-25T03:12:28.695Z,9.61
2019-05-25T03:13:28.690Z,9.50
2019-05-25T03:14:28.681Z,9.47
2019-05-25T03:15:28.704Z,9.48
2019-05-25T03:16:28.708Z,9.53
2019-05-25T03:17:28.718Z,9.54
2019-05-25T03:18:28.714Z,9.58
2019-05-25T03:19:28.685Z,9.51
2019-05-25T03:20:28.685Z,9.52
2019-05-25T03:21:28.697Z,9.51
2019-05-25T03:22:28.705Z,9.44
2019-05-25T03:23:28.704Z,9.53
2019-05-25T03:24:28.710Z,9.57
2019-05-25T03:25:28.697Z,9.63
2019-05-25T03:26:28.666Z,9.44
2019-05-25T03:27:28.702Z,9.56
2019-05-25T03:28:28.696Z,9.66
2019-05-25T03:29:28.711Z,9.72
2019-05-25T03:30:28.717Z,9.75
2019-05-25T03:31:28.708Z,9.73
2019-05-25T03:32:28.705Z,9.73
2019-05-25T03:33:28.709Z,9.66
2019-05-25T03:34:28.726Z,9.66
2019-05-25T03:35:28.714Z,9.74
2019-05-25T03:36:28.714Z,9.70
2019-05-25T03:37:28.749Z,9.75
2019-05-25T03:38:28.703Z,9.77
2019-05-25T03:39:28.729Z,9.82
2019-05-25T03:40:28.731Z,9.71
2019-05-25T03:41:28.718Z,9.64
2019-05-25T03:42:28.717Z,9.63
2019-05-25T03:43:28.703Z,9.69
2019-05-25T03:44:28.711Z,9.90
2019-05-25T03:45:28.717Z,9.91
2019-05-25T03:46:28.715Z,9.94
2019-05-25T03:47:28.692Z,9.98
2019-05-25T03:48:28.731Z,10.06
2019-05-25T03:49:28.713Z,10.08
2019-05-25T03:50:28.707Z,9.97
2019-05-25T03:51:28.742Z,10.05
2019-05-25T03:52:28.740Z,10.13
2019-05-25T03:53:28.757Z,10.09
2019-05-25T03:54:28.729Z,10.17
2019-05-25T03:55:28.697Z,10.23
2019-05-25T03:56:28.688Z,10.23
2019-05-25T03:57:28.727Z,10.13
2019-05-25T03:58:28.729Z,10.11
2019-05-25T03:59:28.727Z,10.08
2019-05-25T04:00:28.733Z,10.08
2019-05-25T04:01:28.735Z,10.17
2019-05-25T04:02:28.725Z,10.16
2019-05-25T04:03:28.733Z,10.20
2019-05-25T04:04:28.722Z,10.22
2019-05-25T04:05:28.739Z,10.30
2019-05-25T04:06:28.735Z,10.24
2019-05-25T04:07:28.731Z,10.30
2019-05-25T04:08:28.709Z,10.26
2019-05-25T04:09:28.812Z,10.22
2019-05-25T04:10:28.739Z,10.23
2019-05-25T04:11:28.743Z,10.30
2019-05-25T04:12:28.757Z,10.32
2019-05-25T04:13:28.708Z,10.35
2019-05-25T04:14:28.742Z,10.37
2019-05-25T04:15:28.736Z,10.26
2019-05-25T04:16:28.742Z,10.29
2019-05-25T04:17:28.732Z,10.37
2019-05-25T04:18:28.751Z,10.33
2019-05-25T04:19:28.718Z,10.32
2019-05-25T04:20:28.746Z,10.33
2019-05-25T04:21:28.741Z,10.49
2019-05-25T04:22:28.752Z,10.49
2019-05-25T04:23:28.765Z,10.60
2019-05-25T04:24:28.744Z,10.68
2019-05-25T04:25:28.720Z,10.78
2019-05-25T04:26:28.738Z,10.75
2019-05-25T04:27:28.750Z,10.73
2019-05-25T04:28:28.752Z,10.71
2019-05-25T04:29:28.775Z,10.82
2019-05-25T04:30:28.789Z,10.85
2019-05-25T04:31:28.741Z,10.93
2019-05-25T04:32:28.761Z,10.93
2019-05-25T04:33:28.761Z,10.89
2019-05-25T04:34:28.760Z,10.90
2019-05-25T04:35:28.749Z,10.88
2019-05-25T04:36:28.766Z,10.96
2019-05-25T04:37:28.745Z,11.13
2019-05-25T04:38:28.766Z,11.16
2019-05-25T04:39:28.758Z,11.24
2019-05-25T04:40:28.758Z,11.29
2019-05-25T04:41:28.768Z,11.31
2019-05-25T04:42:28.763Z,11.34
2019-05-25T04:43:28.758Z,11.48
2019-05-25T04:44:28.729Z,11.26
2019-05-25T04:45:28.762Z,11.38
2019-05-25T04:46:28.782Z,11.38
2019-05-25T04:47:28.751Z,11.46
2019-05-25T04:48:28.772Z,11.70
2019-05-25T04:49:28.750Z,11.58
2019-05-25T04:50:28.773Z,11.71
2019-05-25T04:51:28.770Z,11.71
2019-05-25T04:52:28.784Z,11.71
2019-05-25T04:53:28.744Z,11.81
2019-05-25T04:54:28.786Z,12.02
2019-05-25T04:55:28.737Z,12.10
2019-05-25T04:56:39.041Z,12.28
2019-05-25T04:57:28.779Z,12.37
2019-05-25T04:58:28.777Z,12.56
2019-05-25T04:59:28.785Z,12.77
2019-05-25T05:00:28.767Z,13.07
2019-05-25T05:01:28.763Z,13.48
2019-05-25T05:02:28.773Z,13.80
2019-05-25T05:03:28.774Z,14.17
2019-05-25T05:04:28.766Z,14.48
2019-05-25T05:05:28.766Z,14.91
2019-05-25T05:06:28.779Z,15.21
2019-05-25T05:07:28.761Z,15.61
2019-05-25T05:08:28.768Z,15.80
2019-05-25T05:09:28.779Z,16.08
2019-05-25T05:10:28.787Z,16.35
2019-05-25T05:11:28.818Z,16.61
2019-05-25T05:12:28.782Z,16.54
2019-05-25T05:13:28.782Z,16.46
2019-05-25T05:14:28.762Z,16.94
2019-05-25T05:15:28.796Z,16.83
2019-05-25T05:16:28.791Z,17.29
2019-05-25T05:17:28.793Z,17.39
2019-05-25T05:18:28.822Z,17.41
2019-05-25T05:19:28.790Z,17.83
2019-05-25T05:20:28.756Z,18.22
2019-05-25T05:21:28.786Z,18.43
2019-05-25T05:22:28.806Z,18.49
2019-05-25T05:23:28.816Z,18.73
2019-05-25T05:24:28.785Z,18.75
2019-05-25T05:25:28.777Z,18.64
2019-05-25T05:26:28.791Z,18.66
2019-05-25T05:27:28.788Z,18.88
2019-05-25T05:28:28.797Z,19.17
2019-05-25T05:29:28.807Z,19.33
2019-05-25T05:30:28.807Z,19.53
2019-05-25T05:31:28.797Z,19.69
2019-05-25T05:32:28.785Z,19.91
2019-05-25T05:33:28.801Z,19.68
2019-05-25T05:34:28.795Z,19.61
2019-05-25T05:35:28.801Z,19.90
2019-05-25T05:36:28.797Z,19.99
2019-05-25T05:37:28.777Z,20.09
2019-05-25T05:38:28.809Z,19.97
2019-05-25T05:39:28.819Z,20.27
2019-05-25T05:40:28.816Z,20.18
2019-05-25T05:41:31.146Z,20.61
2019-05-25T05:42:28.805Z,20.69
2019-05-25T05:43:28.811Z,20.77
2019-05-25T05:44:28.918Z,20.37
2019-05-25T05:45:28.822Z,20.34
2019-05-25T05:46:28.809Z,20.74
2019-05-25T05:47:28.816Z,20.14
2019-05-25T05:48:28.816Z,20.50
2019-05-25T05:49:28.782Z,21.30
2019-05-25T05:50:28.829Z,21.36
2019-05-25T05:51:28.810Z,21.00
2019-05-25T05:52:28.804Z,20.73
2019-05-25T05:53:28.816Z,21.19
2019-05-25T05:54:28.811Z,21.43
2019-05-25T05:55:28.813Z,21.33
2019-05-25T05:56:28.823Z,21.56
2019-05-25T05:57:28.810Z,21.62
2019-05-25T05:58:28.815Z,22.18
2019-05-25T05:59:28.814Z,22.57
2019-05-25T06:00:28.908Z,22.74
2019-05-25T06:01:28.852Z,22.58
2019-05-25T06:02:28.918Z,21.99
2019-05-25T06:03:28.856Z,21.73
2019-05-25T06:04:29.060Z,21.54
2019-05-25T06:05:28.864Z,22.20
2019-05-25T06:06:28.931Z,22.73
2019-05-25T06:07:28.906Z,22.69
2019-05-25T06:08:28.887Z,22.72
2019-05-25T06:09:28.947Z,23.26
2019-05-25T06:10:28.933Z,23.61
2019-05-25T06:11:28.965Z,23.54
2019-05-25T06:12:28.990Z,23.52
2019-05-25T06:13:28.987Z,23.71
2019-05-25T06:14:28.990Z,23.95
2019-05-25T06:15:29.012Z,24.37
2019-05-25T06:16:29.020Z,24.17
2019-05-25T06:17:29.050Z,23.84
2019-05-25T06:18:29.059Z,24.20
2019-05-25T06:19:29.026Z,24.58
2019-05-25T06:20:29.047Z,25.02
2019-05-25T06:21:29.081Z,24.76
2019-05-25T06:22:29.079Z,24.84
2019-05-25T06:23:29.123Z,25.23
2019-05-25T06:24:29.111Z,25.58
2019-05-25T06:25:29.137Z,25.33
2019-05-25T06:26:29.126Z,25.61
2019-05-25T06:27:29.158Z,25.71
2019-05-25T06:28:29.157Z,25.22
2019-05-25T06:29:29.181Z,25.45
2019-05-25T06:30:29.190Z,25.89
2019-05-25T06:31:29.186Z,26.15
2019-05-25T06:32:29.177Z,26.32
2019-05-25T06:33:29.211Z,26.37
2019-05-25T06:34:29.267Z,26.54
2019-05-25T06:35:29.215Z,26.46
2019-05-25T06:36:29.260Z,26.69
2019-05-25T06:37:29.314Z,26.96
2019-05-25T06:38:29.276Z,27.34
2019-05-25T06:39:29.309Z,27.21
2019-05-25T06:40:29.283Z,27.51
2019-05-25T06:41:29.285Z,27.42
2019-05-25T06:42:29.333Z,27.65
2019-05-25T06:43:29.327Z,27.59
2019-05-25T06:44:29.358Z,27.56
2019-05-25T06:45:29.366Z,27.17
2019-05-25T06:46:29.363Z,26.59
2019-05-25T06:47:29.368Z,27.50
2019-05-25T06:48:29.385Z,27.71
2019-05-25T06:49:29.396Z,28.12
2019-05-25T06:50:29.427Z,28.03
2019-05-25T06:51:29.439Z,28.45
2019-05-25T06:52:29.425Z,28.99
2019-05-25T06:53:29.450Z,29.27
2019-05-25T06:54:29.470Z,29.85
2019-05-25T06:55:29.486Z,29.96
2019-05-25T06:56:29.495Z,29.44
2019-05-25T06:57:42.038Z,29.46
2019-05-25T06:58:29.488Z,29.35
2019-05-25T06:59:29.505Z,29.37
2019-05-25T07:00:29.506Z,29.73
2019-05-25T07:01:29.514Z,30.16
2019-05-25T07:02:29.484Z,30.64
2019-05-25T07:03:29.508Z,30.64
2019-05-25T07:04:29.489Z,30.29
2019-05-25T07:05:29.503Z,29.68
2019-05-25T07:06:29.536Z,29.44
2019-05-25T07:07:29.518Z,28.67
2019-05-25T07:08:29.494Z,28.95
2019-05-25T07:09:29.522Z,29.46
2019-05-25T07:10:29.498Z,28.95
2019-05-25T07:11:29.496Z,28.41
2019-05-25T07:12:29.529Z,28.52
2019-05-25T07:13:29.539Z,28.22
2019-05-25T07:14:29.491Z,28.77
2019-05-25T07:15:29.520Z,29.41
2019-05-25T07:16:29.510Z,29.48
2019-05-25T07:17:29.508Z,29.90
2019-05-25T07:18:29.538Z,30.27
2019-05-25T07:19:29.521Z,29.77
2019-05-25T07:20:29.517Z,30.13
2019-05-25T07:21:29.524Z,29.87
2019-05-25T07:22:29.527Z,29.21
2019-05-25T07:23:29.533Z,28.57
2019-05-25T07:24:29.557Z,28.25
2019-05-25T07:25:29.519Z,28.54
2019-05-25T07:26:29.521Z,28.67
2019-05-25T07:27:29.528Z,29.49
2019-05-25T07:28:29.522Z,29.60
2019-05-25T07:29:29.520Z,28.57
2019-05-25T07:30:29.522Z,27.98
2019-05-25T07:31:29.532Z,25.78
2019-05-25T07:32:29.521Z,26.79
2019-05-25T07:33:29.545Z,27.17
2019-05-25T07:34:29.540Z,28.08
2019-05-25T07:35:29.553Z,28.74
2019-05-25T07:36:29.542Z,29.52
2019-05-25T07:37:29.526Z,29.95
2019-05-25T07:38:29.526Z,30.30
2019-05-25T07:39:29.561Z,30.20
2019-05-25T07:40:29.555Z,28.70
2019-05-25T07:41:29.505Z,28.60
2019-05-25T07:42:29.555Z,27.44
2019-05-25T07:43:29.543Z,28.15
2019-05-25T07:44:29.544Z,28.31
2019-05-25T07:45:29.585Z,28.45
2019-05-25T07:46:29.552Z,28.73
2019-05-25T07:47:29.526Z,28.59
2019-05-25T07:48:29.543Z,28.12
2019-05-25T07:49:29.555Z,27.87
2019-05-25T07:50:29.541Z,27.71
2019-05-25T07:51:29.550Z,28.46
2019-05-25T07:52:29.567Z,28.70
2019-05-25T07:53:29.531Z,28.91
2019-05-25T07:54:29.558Z,28.01
2019-05-25T07:55:29.559Z,27.85
2019-05-25T07:56:29.543Z,28.47
2019-05-25T07:57:29.572Z,28.52
2019-05-25T07:58:29.548Z,29.10
2019-05-25T07:59:29.554Z,29.59
2019-05-25T08:00:29.565Z,29.59
2019-05-25T08:01:29.533Z,29.13
2019-05-25T08:02:29.562Z,29.19
2019-05-25T08:03:29.562Z,28.92
2019-05-25T08:04:29.537Z,28.65
2019-05-25T08:05:29.548Z,29.31
2019-05-25T08:06:29.610Z,29.69
2019-05-25T08:07:29.567Z,30.03
2019-05-25T08:08:29.564Z,29.90
2019-05-25T08:09:29.567Z,30.63
2019-05-25T08:10:29.549Z,31.05
2019-05-25T08:11:29.564Z,30.39
2019-05-25T08:12:29.611Z,28.13
2019-05-25T08:13:29.569Z,27.09
2019-05-25T08:14:29.572Z,27.64
2019-05-25T08:15:29.568Z,26.99
2019-05-25T08:16:29.545Z,28.22
2019-05-25T08:17:29.594Z,29.18
2019-05-25T08:18:29.574Z,29.46
2019-05-25T08:19:29.549Z,29.08
2019-05-25T08:20:29.578Z,29.30
2019-05-25T08:21:29.585Z,27.00
2019-05-25T08:22:29.590Z,28.43
2019-05-25T08:23:29.565Z,29.06
2019-05-25T08:24:29.583Z,29.58
2019-05-25T08:25:29.560Z,29.40
2019-05-25T08:26:29.595Z,29.55
2019-05-25T08:27:29.626Z,28.64
2019-05-25T08:28:32.775Z,26.88
2019-05-25T08:29:29.596Z,27.44
2019-05-25T08:30:29.606Z,28.50
2019-05-25T08:31:29.608Z,29.13
2019-05-25T08:32:29.587Z,28.67
2019-05-25T08:33:29.614Z,29.30
2019-05-25T08:34:29.598Z,29.72
2019-05-25T08:35:29.584Z,30.04
2019-05-25T08:36:29.903Z,29.57
2019-05-25T08:37:29.602Z,29.24
2019-05-25T08:38:29.633Z,29.25
2019-05-25T08:39:29.614Z,29.10
2019-05-25T08:40:29.583Z,28.50
2019-05-25T08:41:29.578Z,28.51
2019-05-25T08:42:29.605Z,27.99
2019-05-25T08:43:29.611Z,27.69
2019-05-25T08:44:29.578Z,27.41
2019-05-25T08:45:29.602Z,26.51
2019-05-25T08:46:29.603Z,25.89
2019-05-25T08:47:29.603Z,26.26
2019-05-25T08:48:29.622Z,26.87
2019-05-25T08:49:29.607Z,26.60
2019-05-25T08:50:38.223Z,24.10
2019-05-25T08:51:29.615Z,24.50
2019-05-25T08:52:29.596Z,24.55
2019-05-25T08:53:40.716Z,24.24
2019-05-25T08:54:29.636Z,25.06
2019-05-25T08:55:29.619Z,24.51
2019-05-25T08:56:29.610Z,24.45
2019-05-25T08:57:29.625Z,25.72
2019-05-25T08:58:29.605Z,26.72
2019-05-25T08:59:29.616Z,25.00
2019-05-25T09:00:29.637Z,25.01
2019-05-25T09:01:29.631Z,25.45
2019-05-25T09:02:29.619Z,26.14
2019-05-25T09:03:29.640Z,26.85
2019-05-25T09:04:29.607Z,27.75
2019-05-25T09:05:29.624Z,28.16
2019-05-25T09:06:29.663Z,28.35
2019-05-25T09:07:29.642Z,29.09
2019-05-25T09:08:29.629Z,29.54
2019-05-25T09:09:29.641Z,29.51
2019-05-25T09:10:29.644Z,29.06
2019-05-25T09:11:29.655Z,29.31
2019-05-25T09:12:29.644Z,29.60
2019-05-25T09:13:29.627Z,29.26
2019-05-25T09:14:29.628Z,29.56
2019-05-25T09:15:29.645Z,29.41
2019-05-25T09:16:29.642Z,29.36
2019-05-25T09:17:29.621Z,29.32
2019-05-25T09:18:29.638Z,28.96
2019-05-25T09:19:29.629Z,27.84
2019-05-25T09:20:29.616Z,28.43
2019-05-25T09:21:29.675Z,29.61
2019-05-25T09:22:29.670Z,30.33
2019-05-25T09:23:29.627Z,29.71
2019-05-25T09:24:29.650Z,30.08
2019-05-25T09:25:29.655Z,30.11
2019-05-25T09:26:29.637Z,28.84
2019-05-25T09:27:29.669Z,29.78
2019-05-25T09:28:29.635Z,29.84
2019-05-25T09:29:29.674Z,29.65
2019-05-25T09:30:29.647Z,29.96
2019-05-25T09:31:29.638Z,30.10
2019-05-25T09:32:29.756Z,30.74
2019-05-25T09:33:29.656Z,30.86
2019-05-25T09:34:29.650Z,30.91
2019-05-25T09:35:29.636Z,31.53
2019-05-25T09:36:29.675Z,31.27
2019-05-25T09:37:29.674Z,31.47
2019-05-25T09:38:29.639Z,31.62
2019-05-25T09:39:29.687Z,32.21
2019-05-25T09:40:29.644Z,27.24
2019-05-25T09:41:29.662Z,28.33
2019-05-25T09:42:29.695Z,29.81
2019-05-25T09:43:29.653Z,30.57
2019-05-25T09:44:29.659Z,31.14
2019-05-25T09:45:29.680Z,30.63
2019-05-25T09:46:29.662Z,30.65
2019-05-25T09:47:29.669Z,29.49
2019-05-25T09:48:29.679Z,28.46
2019-05-25T09:49:29.672Z,28.36
2019-05-25T09:50:29.677Z,27.06
2019-05-25T09:51:29.682Z,27.66
2019-05-25T09:52:29.730Z,27.77
2019-05-25T09:53:29.664Z,28.48
2019-05-25T09:54:29.676Z,29.11
2019-05-25T09:55:29.673Z,29.94
2019-05-25T09:56:29.690Z,28.95
2019-05-25T09:57:29.721Z,30.09
2019-05-25T09:58:29.670Z,30.71
2019-05-25T09:59:29.662Z,30.83
2019-05-25T10:00:29.710Z,30.92
2019-05-25T10:01:29.673Z,30.18
2019-05-25T10:02:29.707Z,29.43
2019-05-25T10:03:29.710Z,27.16
2019-05-25T10:04:29.682Z,27.62
2019-05-25T10:05:29.666Z,29.06
2019-05-25T10:06:29.695Z,29.03
2019-05-25T10:07:29.704Z,28.42
2019-05-25T10:08:29.693Z,28.57
2019-05-25T10:09:29.682Z,28.68
2019-05-25T10:10:29.679Z,28.73
2019-05-25T10:11:29.686Z,28.99
2019-05-25T10:12:29.718Z,28.09
2019-05-25T10:13:29.712Z,26.17
2019-05-25T10:14:29.725Z,27.91
2019-05-25T10:15:29.752Z,28.93
2019-05-25T10:16:29.696Z,29.50
2019-05-25T10:17:29.759Z,30.08
2019-05-25T10:18:29.724Z,28.27
2019-05-25T10:19:29.827Z,29.41
2019-05-25T10:20:29.718Z,30.04
2019-05-25T10:21:29.835Z,29.20
2019-05-25T10:22:29.716Z,29.61
2019-05-25T10:23:29.691Z,28.67
2019-05-25T10:24:29.713Z,27.81
2019-05-25T10:25:29.762Z,26.51
2019-05-25T10:26:29.722Z,28.32
2019-05-25T10:27:29.775Z,27.78
2019-05-25T10:28:29.714Z,28.26
2019-05-25T10:29:36.999Z,28.66
2019-05-25T10:30:29.726Z,29.65
2019-05-25T10:31:29.726Z,30.76
2019-05-25T10:32:29.738Z,29.39
2019-05-25T10:33:29.722Z,30.72
2019-05-25T10:34:29.711Z,29.53
2019-05-25T10:35:29.702Z,29.42
2019-05-25T10:36:29.736Z,28.27
2019-05-25T10:37:29.736Z,26.47
2019-05-25T10:38:29.743Z,26.03
2019-05-25T10:39:29.740Z,26.99
2019-05-25T10:40:29.723Z,28.08
2019-05-25T10:41:29.703Z,28.36
2019-05-25T10:42:29.736Z,29.12
2019-05-25T10:43:29.750Z,26.54
2019-05-25T10:44:29.759Z,26.60
2019-05-25T10:45:29.759Z,26.07
2019-05-25T10:46:29.795Z,26.90
2019-05-25T10:47:29.764Z,27.19
2019-05-25T10:48:29.734Z,26.87
2019-05-25T10:49:29.797Z,26.58
2019-05-25T10:50:29.762Z,27.35
2019-05-25T10:51:29.846Z,26.65
2019-05-25T10:52:29.732Z,27.99
2019-05-25T10:53:29.762Z,28.29
2019-05-25T10:54:29.758Z,27.54
2019-05-25T10:55:29.775Z,27.84
2019-05-25T10:56:29.765Z,28.28
2019-05-25T10:57:29.795Z,28.09
2019-05-25T10:58:29.724Z,28.68
2019-05-25T10:59:29.721Z,28.19
2019-05-25T11:00:29.758Z,25.50
2019-05-25T11:01:29.760Z,26.65
2019-05-25T11:02:29.747Z,25.93
2019-05-25T11:03:29.763Z,27.39
2019-05-25T11:04:29.739Z,28.55
2019-05-25T11:05:29.754Z,29.26
2019-05-25T11:06:29.774Z,26.99
2019-05-25T11:07:29.864Z,27.82
2019-05-25T11:08:29.767Z,28.31
2019-05-25T11:09:29.760Z,27.63
2019-05-25T11:10:29.749Z,28.44
2019-05-25T11:11:29.763Z,29.35
2019-05-25T11:12:29.771Z,28.99
2019-05-25T11:13:29.770Z,28.99
2019-05-25T11:14:29.767Z,29.72
2019-05-25T11:15:29.778Z,31.04
2019-05-25T11:16:29.757Z,31.70
2019-05-25T11:17:29.766Z,31.67
2019-05-25T11:18:29.778Z,31.65
2019-05-25T11:19:29.785Z,29.46
2019-05-25T11:20:29.803Z,27.40
2019-05-25T11:21:29.769Z,26.71
2019-05-25T11:22:29.767Z,26.57
2019-05-25T11:23:29.791Z,26.93
2019-05-25T11:24:29.786Z,27.76
2019-05-25T11:25:29.797Z,28.89
2019-05-25T11:26:29.790Z,28.91
2019-05-25T11:27:29.796Z,27.53
2019-05-25T11:28:29.768Z,27.00
2019-05-25T11:29:29.784Z,28.39
2019-05-25T11:30:29.796Z,29.16
2019-05-25T11:31:29.858Z,27.59
2019-05-25T11:32:29.780Z,28.46
2019-05-25T11:33:29.844Z,29.56
2019-05-25T11:34:29.938Z,30.50
2019-05-25T11:35:29.798Z,30.72
2019-05-25T11:36:29.801Z,30.16
2019-05-25T11:37:29.805Z,29.21
2019-05-25T11:38:29.804Z,28.66
2019-05-25T11:39:29.802Z,29.82
2019-05-25T11:40:29.820Z,30.63
2019-05-25T11:41:29.776Z,31.27
2019-05-25T11:42:29.799Z,30.22
2019-05-25T11:43:29.802Z,30.43
2019-05-25T11:44:29.824Z,29.85
2019-05-25T11:45:29.806Z,28.43
2019-05-25T11:46:29.832Z,28.31
2019-05-25T11:47:29.798Z,27.59
2019-05-25T11:48:29.813Z,29.22
2019-05-25T11:49:29.824Z,29.39
2019-05-25T11:50:29.828Z,29.39
2019-05-25T11:51:29.828Z,30.47
2019-05-25T11:52:29.810Z,27.87
2019-05-25T11:53:29.810Z,29.74
2019-05-25T11:54:29.814Z,30.00
2019-05-25T11:55:29.828Z,30.94
2019-05-25T11:56:29.832Z,29.03
2019-05-25T11:57:29.837Z,27.46
2019-05-25T11:58:29.810Z,27.88
2019-05-25T11:59:29.795Z,28.33
2019-05-25T12:00:29.824Z,27.62
2019-05-25T12:01:29.809Z,27.22
2019-05-25T12:02:29.836Z,27.69
2019-05-25T12:03:29.829Z,27.31
2019-05-25T12:04:29.812Z,27.82
2019-05-25T12:05:29.821Z,28.49
2019-05-25T12:06:29.829Z,26.60
2019-05-25T12:07:29.833Z,27.55
2019-05-25T12:08:29.845Z,28.44
2019-05-25T12:09:29.849Z,29.00
2019-05-25T12:10:29.810Z,27.91
2019-05-25T12:11:29.846Z,28.06
2019-05-25T12:12:29.856Z,27.51
2019-05-25T12:13:32.086Z,27.98
2019-05-25T12:14:29.853Z,28.91
2019-05-25T12:15:29.830Z,29.00
2019-05-25T12:16:29.845Z,28.72
2019-05-25T12:17:29.824Z,28.81
2019-05-25T12:18:29.845Z,28.71
2019-05-25T12:19:29.863Z,28.00
2019-05-25T12:20:29.853Z,26.79
2019-05-25T12:21:29.864Z,28.08
2019-05-25T12:22:29.832Z,27.45
2019-05-25T12:23:29.835Z,27.70
2019-05-25T12:24:29.850Z,28.80
2019-05-25T12:25:29.858Z,28.75
2019-05-25T12:26:29.861Z,29.28
2019-05-25T12:27:29.862Z,29.62
2019-05-25T12:28:29.829Z,28.95
2019-05-25T12:29:29.839Z,28.31
2019-05-25T12:30:40.210Z,29.44
2019-05-25T12:31:29.870Z,27.55
2019-05-25T12:32:29.870Z,27.99
2019-05-25T12:33:29.865Z,25.68
2019-05-25T12:34:29.891Z,26.63
2019-05-25T12:35:29.851Z,27.16
2019-05-25T12:36:29.880Z,28.19
2019-05-25T12:37:29.871Z,29.70
2019-05-25T12:38:29.878Z,28.78
2019-05-25T12:39:29.873Z,28.77
2019-05-25T12:40:29.850Z,27.37
2019-05-25T12:41:29.856Z,27.23
2019-05-25T12:42:29.880Z,29.02
2019-05-25T12:43:29.859Z,29.27
2019-05-25T12:44:29.891Z,27.77
2019-05-25T12:45:29.873Z,27.04
2019-05-25T12:46:29.923Z,28.45
2019-05-25T12:47:29.877Z,27.26
2019-05-25T12:48:29.871Z,27.58
2019-05-25T12:49:29.900Z,27.37
2019-05-25T12:50:29.893Z,26.51
2019-05-25T12:51:29.901Z,26.96
2019-05-25T12:52:29.879Z,28.39
2019-05-25T12:53:29.882Z,27.88
2019-05-25T12:54:29.903Z,28.31
2019-05-25T12:55:29.998Z,29.08